createdAt,value
2019-05-14T00:01:31.420Z,15.68
2019-05-14T00:04:02.091Z,15.57
2019-05-14T00:06:31.769Z,15.83
2019-05-14T00:09:01.506Z,15.58
2019-05-14T00:11:31.340Z,15.92
2019-05-14T00:14:01.308Z,15.51
2019-05-14T00:16:31.524Z,15.60
2019-05-14T00:19:01.705Z,15.23
2019-05-14T00:21:31.676Z,15.36
2019-05-14T00:24:01.879Z,15.11
2019-05-14T00:26:31.894Z,14.89
2019-05-14T00:29:01.755Z,14.86
2019-05-14T00:31:31.795Z,14.92
2019-05-14T00:34:01.828Z,15.19
2019-05-14T00:36:31.990Z,14.90
2019-05-14T00:39:01.936Z,15.23
2019-05-14T00:41:31.543Z,14.81
2019-05-14T00:44:01.947Z,14.83
2019-05-14T00:46:31.652Z,14.72
2019-05-14T00:49:01.902Z,14.65
2019-05-14T00:51:31.895Z,14.81
2019-05-14T00:54:01.838Z,14.69
2019-05-14T00:56:32.155Z,14.56
2019-05-14T00:59:01.772Z,14.63
2019-05-14T01:01:31.896Z,14.61
2019-05-14T01:04:01.571Z,14.55
2019-05-14T01:06:31.639Z,14.50
2019-05-14T01:09:01.618Z,14.46
2019-05-14T01:11:31.611Z,14.44
2019-05-14T01:14:01.832Z,14.56
2019-05-14T01:16:31.804Z,14.53
2019-05-14T01:19:02.141Z,14.57
2019-05-14T01:21:31.775Z,14.48
2019-05-14T01:24:02.083Z,14.49
2019-05-14T01:26:31.726Z,14.47
2019-05-14T01:29:01.565Z,14.36
2019-05-14T01:31:31.598Z,14.34
2019-05-14T01:34:02.263Z,14.30
2019-05-14T01:36:32.196Z,14.27
2019-05-14T01:39:02.030Z,14.22
2019-05-14T01:41:31.883Z,14.20
2019-05-14T01:44:01.924Z,14.28
2019-05-14T01:46:31.835Z,14.38
2019-05-14T01:49:01.758Z,14.31
2019-05-14T01:51:31.764Z,14.47
2019-05-14T01:54:01.651Z,14.48
2019-05-14T01:56:31.891Z,14.50
2019-05-14T01:59:01.903Z,14.51
2019-05-14T02:01:31.756Z,14.42
2019-05-14T02:04:02.338Z,14.38
2019-05-14T02:06:32.126Z,14.47
2019-05-14T02:09:02.128Z,14.53
2019-05-14T02:11:32.172Z,14.54
2019-05-14T02:14:02.439Z,14.59
2019-05-14T02:16:32.287Z,14.68
2019-05-14T02:19:01.974Z,14.61
2019-05-14T02:21:31.922Z,14.55
2019-05-14T02:24:02.150Z,14.72
2019-05-14T02:26:31.895Z,14.81
2019-05-14T02:29:02.086Z,14.94
2019-05-14T02:31:31.709Z,14.98
2019-05-14T02:34:01.294Z,14.97
2019-05-14T02:36:31.207Z,14.88
2019-05-14T02:39:00.905Z,14.76
2019-05-14T02:41:30.482Z,14.66
2019-05-14T02:44:00.083Z,14.59
2019-05-14T02:46:29.912Z,14.58
2019-05-14T02:49:02.882Z,14.58
2019-05-14T02:51:32.721Z,14.57
2019-05-14T02:54:02.368Z,14.51
2019-05-14T02:56:31.924Z,14.60
2019-05-14T02:59:05.622Z,14.59
2019-05-14T03:01:32.800Z,14.60
2019-05-14T03:04:02.669Z,14.72
2019-05-14T03:06:32.401Z,14.79
2019-05-14T03:09:02.081Z,15.23
2019-05-14T03:11:31.674Z,15.10
2019-05-14T03:14:01.278Z,15.23
2019-05-14T03:16:35.581Z,14.93
2019-05-14T03:19:02.400Z,15.43
2019-05-14T03:21:31.996Z,15.36
2019-05-14T03:24:01.700Z,15.12
2019-05-14T03:26:31.367Z,14.91
2019-05-14T03:29:00.960Z,14.87
2019-05-14T03:31:32.850Z,15.46
2019-05-14T03:34:03.348Z,15.25
2019-05-14T03:36:34.688Z,15.30
2019-05-14T03:39:05.855Z,15.09
2019-05-14T03:41:35.520Z,15.38
2019-05-14T03:44:05.383Z,15.42
2019-05-14T03:46:48.620Z,15.18
2019-05-14T03:49:09.250Z,15.13
2019-05-14T03:51:39.345Z,15.02
2019-05-14T03:54:12.806Z,15.26
2019-05-14T03:56:40.797Z,15.32
2019-05-14T03:59:10.509Z,15.87
2019-05-14T04:01:40.524Z,15.73
2019-05-14T04:04:10.680Z,15.78
2019-05-14T04:06:41.967Z,15.35
2019-05-14T04:09:14.552Z,15.13
2019-05-14T04:11:50.140Z,15.63
2019-05-14T04:14:21.098Z,15.08
2019-05-14T04:17:08.038Z,15.61
2019-05-14T04:19:25.078Z,15.62
2019-05-14T04:21:59.785Z,15.67
2019-05-14T04:24:31.494Z,15.88
2019-05-14T04:27:07.948Z,15.38
2019-05-14T04:29:39.414Z,15.60
2019-05-14T04:32:09.482Z,15.14
2019-05-14T04:34:40.067Z,15.53
2019-05-14T04:37:10.596Z,15.15
2019-05-14T04:39:40.302Z,14.98
2019-05-14T04:42:10.067Z,14.99
2019-05-14T04:44:40.591Z,15.11
2019-05-14T04:47:27.911Z,15.24
2019-05-14T04:49:42.179Z,15.16
2019-05-14T04:52:11.874Z,15.12
2019-05-14T04:54:41.591Z,15.21
2019-05-14T04:57:11.163Z,15.09
2019-05-14T04:59:40.790Z,15.12
2019-05-14T05:02:10.359Z,15.17
2019-05-14T05:04:41.367Z,15.02
2019-05-14T05:07:11.294Z,15.14
2019-05-14T05:09:40.852Z,15.28
2019-05-14T05:12:10.481Z,15.85
2019-05-14T05:14:40.053Z,15.92
2019-05-14T05:17:09.624Z,16.49
2019-05-14T05:19:44.136Z,16.29
2019-05-14T05:22:10.523Z,16.37
2019-05-14T05:24:40.166Z,16.17
2019-05-14T05:27:09.742Z,16.54
2019-05-14T05:29:39.470Z,16.30
2019-05-14T05:32:09.097Z,16.24
2019-05-14T05:34:39.047Z,16.85
2019-05-14T05:37:08.871Z,16.80
2019-05-14T05:39:38.814Z,17.23
2019-05-14T05:42:09.245Z,17.04
2019-05-14T05:44:39.522Z,16.84
2019-05-14T05:47:09.479Z,16.94
2019-05-14T05:49:39.601Z,16.96
2019-05-14T05:52:09.189Z,17.33
2019-05-14T05:54:38.797Z,16.78
2019-05-14T05:57:09.297Z,17.25
2019-05-14T05:59:39.467Z,17.33
2019-05-14T06:02:09.627Z,17.56
2019-05-14T06:04:39.631Z,17.61
2019-05-14T06:07:09.245Z,17.18
2019-05-14T06:09:38.863Z,17.16
2019-05-14T06:12:08.829Z,16.45
2019-05-14T06:14:38.565Z,15.99
2019-05-14T06:17:08.704Z,15.81
2019-05-14T06:19:38.508Z,15.59
2019-05-14T06:22:09.744Z,15.38
2019-05-14T06:24:39.722Z,15.44
2019-05-14T06:27:09.635Z,15.43
2019-05-14T06:29:39.226Z,15.44
2019-05-14T06:32:09.418Z,15.48
2019-05-14T06:34:39.081Z,15.29
2019-05-14T06:37:08.690Z,15.23
2019-05-14T06:39:39.028Z,15.46
2019-05-14T06:42:09.022Z,15.91
2019-05-14T06:44:38.810Z,16.58
2019-05-14T06:47:09.304Z,16.75
2019-05-14T06:49:39.031Z,16.92
2019-05-14T06:52:08.996Z,16.12
2019-05-14T06:54:38.976Z,15.65
2019-05-14T06:57:09.018Z,15.04
2019-05-14T06:59:38.810Z,15.22
2019-05-14T07:02:08.884Z,15.00
2019-05-14T07:04:39.525Z,15.29
2019-05-14T07:07:09.171Z,15.50
2019-05-14T07:09:38.757Z,15.20
2019-05-14T07:12:09.114Z,15.42
2019-05-14T07:14:39.075Z,15.33
2019-05-14T07:17:09.284Z,15.63
2019-05-14T07:19:39.008Z,15.59
2019-05-14T07:22:09.071Z,15.67
2019-05-14T07:24:40.572Z,15.12
2019-05-14T07:27:10.179Z,15.00
2019-05-14T07:29:39.777Z,14.89
2019-05-14T07:32:09.383Z,14.82
2019-05-14T07:34:39.130Z,14.83
2019-05-14T07:37:09.336Z,14.97
2019-05-14T07:39:39.230Z,15.03
2019-05-14T07:42:09.832Z,14.86
2019-05-14T07:44:39.728Z,14.84
2019-05-14T07:47:09.289Z,14.91
2019-05-14T07:49:38.865Z,15.04
2019-05-14T07:52:09.374Z,14.94
2019-05-14T07:54:39.193Z,14.67
2019-05-14T07:57:08.997Z,14.68
2019-05-14T07:59:38.593Z,14.59
2019-05-14T08:02:09.319Z,14.85
2019-05-14T08:04:39.120Z,14.32
2019-05-14T08:07:09.139Z,14.22
2019-05-14T08:09:39.178Z,14.26
2019-05-14T08:12:09.453Z,14.44
2019-05-14T08:14:54.795Z,14.70
2019-05-14T08:17:11.247Z,14.61
2019-05-14T08:19:40.845Z,15.24
2019-05-14T08:22:10.490Z,15.36
2019-05-14T08:24:40.063Z,15.36
2019-05-14T08:27:09.674Z,14.91
2019-05-14T08:29:40.048Z,15.30
2019-05-14T08:32:09.774Z,15.09
2019-05-14T08:34:39.404Z,14.71
2019-05-14T08:37:08.976Z,14.69
2019-05-14T08:39:39.381Z,14.72
2019-05-14T08:42:09.035Z,14.47
2019-05-14T08:44:39.068Z,14.32
2019-05-14T08:47:09.605Z,14.24
2019-05-14T08:49:46.246Z,14.37
2019-05-14T08:52:10.888Z,14.34
2019-05-14T08:54:40.444Z,14.50
2019-05-14T08:57:10.246Z,14.49
2019-05-14T08:59:39.940Z,14.64
2019-05-14T09:02:10.575Z,14.96
2019-05-14T09:04:42.586Z,14.86
2019-05-14T09:07:11.984Z,14.86
2019-05-14T09:09:41.642Z,14.99
2019-05-14T09:12:12.740Z,14.77
2019-05-14T09:14:42.533Z,14.68
2019-05-14T09:17:14.730Z,14.80
2019-05-14T09:19:57.748Z,15.02
2019-05-14T09:22:14.744Z,15.34
2019-05-14T09:24:44.342Z,15.60
2019-05-14T09:27:13.936Z,15.66
2019-05-14T09:29:43.516Z,15.25
2019-05-14T09:32:13.134Z,15.47
2019-05-14T09:34:42.672Z,15.64
2019-05-14T09:37:12.275Z,15.28
2019-05-14T09:39:41.878Z,15.94
2019-05-14T09:42:11.397Z,16.18
2019-05-14T09:44:40.982Z,16.98
2019-05-14T09:47:10.567Z,17.16
2019-05-14T09:49:40.306Z,16.83
2019-05-14T09:52:09.885Z,16.93
2019-05-14T09:54:43.713Z,17.59
2019-05-14T09:57:10.778Z,17.36
2019-05-14T09:59:40.351Z,17.76
2019-05-14T10:02:09.950Z,17.70
2019-05-14T10:04:39.514Z,18.02
2019-05-14T10:07:09.084Z,18.05
2019-05-14T10:09:39.292Z,18.02
2019-05-14T10:12:09.166Z,17.62
2019-05-14T10:14:39.486Z,17.80
2019-05-14T10:17:09.139Z,17.74
2019-05-14T10:19:39.480Z,18.06
2019-05-14T10:22:09.280Z,18.14
2019-05-14T10:24:38.998Z,18.61
2019-05-14T10:27:09.122Z,18.79
2019-05-14T10:29:39.391Z,18.05
2019-05-14T10:32:09.198Z,18.34
2019-05-14T10:34:38.762Z,18.04
2019-05-14T10:37:08.769Z,18.45
2019-05-14T10:39:39.268Z,18.27
2019-05-14T10:42:09.215Z,18.09
2019-05-14T10:44:39.050Z,18.08
2019-05-14T10:47:09.461Z,19.09
2019-05-14T10:49:39.154Z,18.90
2019-05-14T10:52:08.747Z,18.39
2019-05-14T10:54:40.289Z,18.84
2019-05-14T10:57:09.946Z,18.51
2019-05-14T10:59:39.699Z,18.49
2019-05-14T11:02:11.961Z,18.34
2019-05-14T11:04:40.734Z,18.31
2019-05-14T11:07:10.310Z,18.25
2019-05-14T11:09:39.884Z,17.85
2019-05-14T11:12:09.504Z,18.26
2019-05-14T11:14:39.103Z,17.90
2019-05-14T11:17:11.861Z,17.96
2019-05-14T11:19:40.130Z,17.68
2019-05-14T11:22:09.708Z,17.68
2019-05-14T11:24:39.314Z,17.47
2019-05-14T11:27:08.903Z,17.37
2019-05-14T11:29:38.909Z,17.70
2019-05-14T11:32:09.661Z,18.14
2019-05-14T11:34:39.554Z,17.60
2019-05-14T11:37:09.137Z,18.08
2019-05-14T11:39:38.698Z,17.77
2019-05-14T11:42:08.707Z,17.86
2019-05-14T11:44:38.459Z,17.92
2019-05-14T11:47:09.126Z,18.27
2019-05-14T11:49:38.879Z,18.16
2019-05-14T11:52:11.565Z,18.15
2019-05-14T11:54:41.131Z,18.17
2019-05-14T11:57:11.849Z,17.88
2019-05-14T11:59:41.610Z,17.81
2019-05-14T12:02:11.283Z,17.77
2019-05-14T12:04:40.850Z,17.76
2019-05-14T12:07:10.463Z,17.78
2019-05-14T12:09:40.034Z,17.76
2019-05-14T12:12:12.513Z,17.75
2019-05-14T12:14:40.927Z,17.76
2019-05-14T12:17:10.501Z,17.79
2019-05-14T12:19:43.352Z,17.92
2019-05-14T12:22:12.362Z,17.93
2019-05-14T12:24:43.601Z,17.99
2019-05-14T12:27:13.181Z,17.96
2019-05-14T12:29:42.760Z,18.14
2019-05-14T12:32:13.209Z,18.11
2019-05-14T12:34:42.852Z,18.35
2019-05-14T12:37:12.420Z,18.23
2019-05-14T12:39:42.008Z,18.20
2019-05-14T12:42:11.606Z,18.17
2019-05-14T12:44:41.266Z,18.17
2019-05-14T12:47:10.837Z,18.11
2019-05-14T12:49:40.445Z,18.19
2019-05-14T12:52:22.282Z,18.28
2019-05-14T12:54:41.425Z,18.22
2019-05-14T12:57:11.046Z,18.17
2019-05-14T12:59:40.626Z,18.05
2019-05-14T13:02:10.455Z,17.92
2019-05-14T13:04:40.041Z,18.06
2019-05-14T13:07:09.603Z,18.20
2019-05-14T13:09:39.238Z,18.18
2019-05-14T13:12:11.207Z,18.18
2019-05-14T13:14:40.155Z,18.19
2019-05-14T13:17:09.727Z,18.18
2019-05-14T13:19:39.339Z,18.24
2019-05-14T13:22:14.271Z,18.16
2019-05-14T13:24:40.408Z,18.44
2019-05-14T13:27:09.999Z,18.42
2019-05-14T13:29:39.711Z,18.39
2019-05-14T13:32:12.523Z,18.37
2019-05-14T13:34:40.704Z,18.36
2019-05-14T13:37:10.275Z,18.41
2019-05-14T13:39:40.114Z,18.50
2019-05-14T13:42:11.961Z,18.55
2019-05-14T13:44:41.066Z,18.45
2019-05-14T13:47:10.675Z,18.59
2019-05-14T13:49:40.274Z,18.54
2019-05-14T13:52:09.839Z,18.56
2019-05-14T13:54:40.270Z,18.62
2019-05-14T13:57:12.031Z,18.76
2019-05-14T13:59:44.461Z,18.71
2019-05-14T14:02:12.516Z,18.71
2019-05-14T14:04:42.087Z,18.65
2019-05-14T14:07:11.963Z,18.73
2019-05-14T14:09:41.614Z,18.80
2019-05-14T14:12:11.238Z,18.83
2019-05-14T14:14:40.918Z,18.80
2019-05-14T14:17:10.477Z,18.81
2019-05-14T14:19:40.074Z,18.79
2019-05-14T14:22:10.155Z,18.67
2019-05-14T14:24:39.822Z,18.77
2019-05-14T14:27:09.391Z,18.68
2019-05-14T14:29:39.670Z,18.80
2019-05-14T14:32:11.406Z,18.82
2019-05-14T14:34:41.455Z,18.85
2019-05-14T14:37:11.285Z,18.80
2019-05-14T14:39:40.829Z,18.88
2019-05-14T14:42:10.434Z,18.95
2019-05-14T14:44:40.000Z,18.92
2019-05-14T14:47:09.557Z,18.98
2019-05-14T14:49:42.937Z,19.01
2019-05-14T14:52:12.108Z,19.14
2019-05-14T14:54:41.939Z,19.27
2019-05-14T14:57:11.512Z,19.32
2019-05-14T14:59:41.094Z,19.38
2019-05-14T15:02:10.691Z,19.36
2019-05-14T15:04:40.337Z,19.47
2019-05-14T15:07:10.069Z,19.33
2019-05-14T15:09:40.577Z,19.33
2019-05-14T15:12:10.444Z,19.30
2019-05-14T15:14:40.027Z,19.27
2019-05-14T15:17:09.983Z,19.29
2019-05-14T15:19:39.850Z,19.26
2019-05-14T15:22:09.475Z,19.10
2019-05-14T15:24:39.052Z,18.98
2019-05-14T15:27:15.085Z,19.01
2019-05-14T15:29:43.111Z,18.93
2019-05-14T15:32:11.321Z,18.97
2019-05-14T15:34:40.895Z,18.77
2019-05-14T15:37:10.487Z,18.50
2019-05-14T15:39:40.067Z,18.48
2019-05-14T15:42:13.835Z,18.92
2019-05-14T15:44:49.028Z,18.29
2019-05-14T15:47:12.401Z,18.30
2019-05-14T15:49:41.986Z,18.55
2019-05-14T15:52:11.766Z,18.45
2019-05-14T15:54:46.897Z,18.45
2019-05-14T15:57:12.699Z,18.46
2019-05-14T15:59:42.300Z,18.33
2019-05-14T16:02:11.931Z,18.35
2019-05-14T16:04:41.507Z,18.45
2019-05-14T16:07:11.062Z,18.20
2019-05-14T16:09:40.696Z,18.32
2019-05-14T16:12:10.258Z,18.46
2019-05-14T16:14:39.828Z,18.16
2019-05-14T16:17:11.937Z,18.05
2019-05-14T16:19:40.779Z,18.14
2019-05-14T16:22:10.381Z,18.09
2019-05-14T16:24:55.911Z,17.95
2019-05-14T16:27:11.292Z,18.08
2019-05-14T16:29:45.597Z,17.98
2019-05-14T16:32:12.278Z,18.04
2019-05-14T16:34:41.903Z,17.94
2019-05-14T16:37:11.479Z,18.07
2019-05-14T16:39:41.158Z,18.12
2019-05-14T16:42:10.760Z,18.01
2019-05-14T16:44:40.444Z,18.05
2019-05-14T16:47:10.142Z,17.95
2019-05-14T16:49:39.737Z,18.04
2019-05-14T16:52:09.426Z,17.92
2019-05-14T16:54:39.593Z,17.99
2019-05-14T16:57:10.966Z,17.95
2019-05-14T16:59:40.648Z,17.92
2019-05-14T17:02:10.251Z,17.95
2019-05-14T17:04:39.828Z,17.84
2019-05-14T17:07:09.795Z,17.93
2019-05-14T17:09:39.473Z,17.96
2019-05-14T17:12:09.026Z,17.90
2019-05-14T17:14:38.784Z,18.00
2019-05-14T17:17:09.149Z,17.96
2019-05-14T17:19:38.932Z,17.90
2019-05-14T17:22:24.330Z,17.81
2019-05-14T17:24:40.130Z,17.94
2019-05-14T17:27:09.893Z,17.96
2019-05-14T17:29:41.985Z,17.92
2019-05-14T17:32:11.777Z,17.81
2019-05-14T17:34:41.359Z,17.76
2019-05-14T17:37:10.987Z,17.87
2019-05-14T17:39:40.552Z,17.92
2019-05-14T17:42:11.666Z,18.04
2019-05-14T17:44:41.632Z,18.04
2019-05-14T17:47:11.204Z,17.99
2019-05-14T17:49:40.772Z,17.97
2019-05-14T17:52:10.389Z,18.02
2019-05-14T17:54:41.971Z,18.18
2019-05-14T17:57:11.337Z,17.96
2019-05-14T17:59:40.950Z,18.03
2019-05-14T18:02:10.581Z,17.96
2019-05-14T18:04:40.148Z,17.92
2019-05-14T18:07:09.778Z,17.88
2019-05-14T18:09:39.372Z,17.91
2019-05-14T18:12:08.986Z,17.97
2019-05-14T18:14:38.723Z,18.08
2019-05-14T18:17:10.389Z,17.97
2019-05-14T18:19:39.980Z,18.32
2019-05-14T18:22:09.592Z,17.97
2019-05-14T18:24:39.436Z,17.77
2019-05-14T18:27:09.099Z,17.79
2019-05-14T18:29:39.086Z,18.17
2019-05-14T18:32:09.202Z,18.29
2019-05-14T18:34:39.260Z,18.13
2019-05-14T18:37:13.880Z,18.34
2019-05-14T18:39:40.285Z,18.23
2019-05-14T18:42:09.852Z,18.29
2019-05-14T18:44:39.464Z,17.99
2019-05-14T18:47:09.076Z,18.41
2019-05-14T18:49:38.671Z,17.96
2019-05-14T18:52:09.011Z,17.70
2019-05-14T18:54:38.952Z,17.58
2019-05-14T18:57:11.915Z,17.19
2019-05-14T18:59:40.042Z,16.99
2019-05-14T19:02:09.716Z,16.84
2019-05-14T19:04:39.292Z,16.81
2019-05-14T19:07:08.877Z,16.69
2019-05-14T19:09:38.946Z,16.54
2019-05-14T19:12:08.728Z,16.60
2019-05-14T19:14:39.072Z,16.68
2019-05-14T19:17:09.282Z,17.23
2019-05-14T19:19:38.912Z,17.13
2019-05-14T19:22:08.523Z,16.86
2019-05-14T19:24:38.366Z,17.23
2019-05-14T19:27:09.080Z,16.96
2019-05-14T19:29:38.955Z,17.18
2019-05-14T19:32:08.518Z,17.32
2019-05-14T19:34:38.377Z,17.46
2019-05-14T19:37:08.440Z,17.19
2019-05-14T19:39:38.630Z,17.38
2019-05-14T19:42:08.696Z,17.43
2019-05-14T19:44:40.405Z,17.17
2019-05-14T19:47:09.723Z,17.29
2019-05-14T19:49:39.358Z,17.25
2019-05-14T19:52:08.952Z,17.22
2019-05-14T19:54:38.645Z,17.63
2019-05-14T19:57:09.958Z,17.33
2019-05-14T19:59:39.730Z,17.11
2019-05-14T20:02:09.699Z,16.85
2019-05-14T20:04:39.265Z,16.76
2019-05-14T20:07:09.056Z,16.76
2019-05-14T20:09:39.049Z,16.65
2019-05-14T20:12:08.833Z,16.55
2019-05-14T20:14:38.454Z,16.48
2019-05-14T20:17:08.938Z,16.45
2019-05-14T20:19:39.582Z,16.57
2019-05-14T20:22:09.373Z,16.41
2019-05-14T20:24:41.678Z,16.55
2019-05-14T20:27:12.252Z,16.46
2019-05-14T20:29:41.642Z,16.47
2019-05-14T20:32:44.278Z,16.53
2019-05-14T20:35:30.659Z,16.53
2019-05-14T20:37:49.352Z,16.41
2019-05-14T20:40:19.317Z,16.32
2019-05-14T20:42:49.299Z,16.19
2019-05-14T20:45:19.320Z,16.12
2019-05-14T20:47:54.350Z,16.01
2019-05-14T20:50:24.082Z,15.94
2019-05-14T20:52:59.971Z,16.16
2019-05-14T20:55:29.631Z,16.05
2019-05-14T20:57:59.225Z,16.14
2019-05-14T21:00:29.503Z,16.15
2019-05-14T21:02:59.814Z,16.08
2019-05-14T21:05:32.861Z,16.06
2019-05-14T21:08:02.452Z,16.05
2019-05-14T21:10:31.995Z,16.08
2019-05-14T21:13:01.518Z,16.08
2019-05-14T21:15:31.166Z,16.00
2019-05-14T21:18:00.692Z,15.89
2019-05-14T21:20:30.317Z,15.80
2019-05-14T21:22:59.851Z,15.86
2019-05-14T21:25:29.773Z,15.95
2019-05-14T21:27:59.383Z,15.86
2019-05-14T21:30:29.807Z,15.75
2019-05-14T21:33:00.417Z,15.72
2019-05-14T21:35:30.241Z,15.65
2019-05-14T21:37:59.789Z,15.61
2019-05-14T21:40:32.128Z,15.50
2019-05-14T21:43:00.609Z,15.55
2019-05-14T21:45:30.241Z,15.56
2019-05-14T21:47:59.877Z,15.57
2019-05-14T21:50:29.421Z,15.57
2019-05-14T21:52:59.587Z,15.63
2019-05-14T21:55:29.314Z,15.56
2019-05-14T21:57:58.885Z,15.56
2019-05-14T22:00:42.147Z,15.48
2019-05-14T22:03:10.599Z,15.42
2019-05-14T22:05:40.414Z,15.44
2019-05-14T22:08:09.961Z,15.48
2019-05-14T22:10:40.124Z,15.44
2019-05-14T22:13:09.880Z,15.51
2019-05-14T22:15:39.425Z,15.58
2019-05-14T22:18:16.937Z,15.64
2019-05-14T22:20:40.427Z,15.69
2019-05-14T22:23:09.964Z,15.71
2019-05-14T22:25:39.785Z,15.80
2019-05-14T22:28:15.371Z,15.92
2019-05-14T22:30:40.620Z,16.17
2019-05-14T22:33:10.279Z,16.26
2019-05-14T22:35:41.627Z,16.13
2019-05-14T22:38:11.354Z,16.35
2019-05-14T22:40:41.131Z,16.19
2019-05-14T22:43:10.776Z,16.26
2019-05-14T22:45:40.556Z,16.04
2019-05-14T22:48:10.193Z,16.20
2019-05-14T22:50:41.342Z,16.11
2019-05-14T22:53:11.144Z,15.98
2019-05-14T22:55:40.792Z,15.82
2019-05-14T22:58:24.559Z,15.82
2019-05-14T23:00:46.476Z,15.76
2019-05-14T23:03:13.377Z,15.80
2019-05-14T23:05:43.048Z,15.81
2019-05-14T23:08:12.672Z,15.85
2019-05-14T23:10:42.360Z,15.72
2019-05-14T23:13:11.980Z,15.84
2019-05-14T23:15:41.628Z,15.97
2019-05-14T23:18:11.303Z,15.93
2019-05-14T23:20:40.940Z,15.98
2019-05-14T23:23:10.652Z,16.10
2019-05-14T23:25:40.273Z,16.31
2019-05-14T23:28:09.920Z,16.29
2019-05-14T23:30:39.599Z,16.39
2019-05-14T23:33:09.269Z,16.53
2019-05-14T23:35:39.229Z,16.38
2019-05-14T23:38:09.190Z,16.37
2019-05-14T23:40:39.246Z,16.51
2019-05-14T23:43:08.891Z,16.70
2019-05-14T23:45:38.523Z,16.68
2019-05-14T23:48:09.544Z,16.81
2019-05-14T23:50:39.419Z,16.97
2019-05-14T23:53:09.408Z,17.17
2019-05-14T23:55:39.171Z,17.01
2019-05-14T23:58:08.789Z,17.10
